Kings Canyon National Pk, California
Current Conditions -  °F | °C
As of 11:56 AM on Thursday 23 Oct 2014 (Local Time) from KBIH Reporting Station
Clear Clear  
Wind Chill: 67°   Ceiling: Unl
Heat Index: 67°   Visibility: 10mi
Dew Point: 26°   Wind: 0mph
Humidity: 21%   Direction: NA
Pressure: 30.12"   Gusts: NA
Location:  36.7872°N, 118.66°W
Report Text: KBIH 231856Z AUTO 00000KT 10SM CLR 19/M03 A3012 RMK AO2 SLP168 T01941033
Loading
Personal Weather Stations






























Interactive Weather Map
Tropical Storm Tracking
New forecast layout! Learn more

10-Day Weather Forecast

Advertisements
Track Severe Weather on mobile